Time;durP1;ratioP1;P1;durP2;ratioP2;P2;SDS_P1;SDS_P2;PMS_P1;PMS_P2;Temp;Humidity;BMP_temperature;BMP_pressure;BME280_temperature;BME280_humidity;BME280_pressure;Samples;Min_cycle;Max_cycle;Signal;HPM_P1;HPM_P2
2022/03/04 00:00:34;;;;;;;;;;;;;;;29.14;19.00;100583.41;5090266;28;804;-42
2022/03/04 00:02:59;;;;;;;;;;;;;;;28.92;19.18;100588.88;5094393;28;1547;-43
2022/03/04 00:05:25;;;;;;;;;;;;;;;28.65;19.41;100593.28;5087576;28;967;-44
2022/03/04 00:07:50;;;;;;;;;;;;;;;28.32;20.00;100587.38;5093031;28;1167;-43
2022/03/04 00:10:15;;;;;;;;;;;;;;;27.75;20.16;100590.81;5095945;28;777;-43
2022/03/04 00:12:41;;;;;;;;;;;;;;;27.65;20.62;100592.94;5096147;28;816;-42
2022/03/04 00:15:06;;;;;;;;;;;;;;;28.85;19.31;100588.00;5095621;28;940;-43
2022/03/04 00:17:31;;;;;;;;;;;;;;;29.05;19.07;100587.28;5074320;28;1914;-42
2022/03/04 00:19:57;;;;;;;;;;;;;;;29.03;18.93;100584.78;5092542;28;905;-43
2022/03/04 00:22:22;;;;;;;;;;;;;;;28.38;19.71;100588.50;5096005;28;789;-43
2022/03/04 00:24:47;;;;;;;;;;;;;;;28.01;20.31;100590.44;5095853;28;814;-42
2022/03/04 00:27:13;;;;;;;;;;;;;;;28.00;20.35;100586.88;5096153;28;790;-43
2022/03/04 00:29:38;;;;;;;;;;;;;;;27.58;20.70;100586.63;5098737;28;896;-43
2022/03/04 00:32:03;;;;;;;;;;;;;;;27.53;20.88;100589.88;5092833;28;974;-42
2022/03/04 00:34:29;;;;;;;;;;;;;;;28.65;19.44;100585.16;5099310;28;873;-42
2022/03/04 00:36:54;;;;;;;;;;;;;;;28.47;20.07;100583.78;5099301;28;1910;-41
2022/03/04 00:39:19;;;;;;;;;;;;;;;29.01;19.54;100586.03;5099885;28;854;-43
2022/03/04 00:41:44;;;;;;;;;;;;;;;28.36;20.17;100580.56;5099544;28;722;-41
2022/03/04 00:44:10;;;;;;;;;;;;;;;27.87;20.35;100584.88;5096845;28;809;-42
2022/03/04 00:46:36;;;;;;;;;;;;;;;27.98;20.71;100588.94;5071126;28;911;-43
2022/03/04 00:49:01;;;;;;;;;;;;;;;28.15;20.14;100586.81;5079798;28;853;-42
2022/03/04 00:51:26;;;;;;;;;;;;;;;28.34;20.12;100585.34;5080233;28;774;-43
2022/03/04 00:53:52;;;;;;;;;;;;;;;28.43;20.00;100585.19;5080266;28;845;-42
2022/03/04 00:56:17;;;;;;;;;;;;;;;28.83;19.51;100585.47;5079149;28;1961;-42
2022/03/04 00:58:42;;;;;;;;;;;;;;;29.26;19.16;100588.25;5097987;28;807;-43
2022/03/04 01:01:08;;;;;;;;;;;;;;;28.67;19.40;100588.50;5093592;28;1225;-42
2022/03/04 01:03:33;;;;;;;;;;;;;;;28.04;20.24;100585.47;5098961;28;841;-44
2022/03/04 01:05:59;;;;;;;;;;;;;;;27.89;20.42;100585.53;5099137;28;1178;-42
2022/03/04 01:08:24;;;;;;;;;;;;;;;29.02;19.33;100585.84;5099130;28;966;-42
2022/03/04 01:10:49;;;;;;;;;;;;;;;29.02;19.15;100588.53;5096072;28;887;-43
2022/03/04 01:13:15;;;;;;;;;;;;;;;28.82;19.35;100583.81;5099174;28;1504;-42
2022/03/04 01:15:40;;;;;;;;;;;;;;;27.81;20.47;100585.66;5094492;28;887;-43
2022/03/04 01:18:05;;;;;;;;;;;;;;;27.47;20.60;100587.97;5079180;28;1902;-43
2022/03/04 01:20:31;;;;;;;;;;;;;;;27.30;21.22;100576.53;5079697;28;901;-43
2022/03/04 01:22:56;;;;;;;;;;;;;;;27.24;20.96;100580.81;5087203;28;846;-43
2022/03/04 01:25:22;;;;;;;;;;;;;;;27.04;21.14;100580.56;5098819;28;775;-43
2022/03/04 01:27:47;;;;;;;;;;;;;;;26.99;21.28;100583.78;5098818;28;837;-43
2022/03/04 01:30:14;;;;;;;;;;;;;;;26.94;21.26;100586.19;5079868;28;1044;-43
2022/03/04 01:32:39;;;;;;;;;;;;;;;27.43;21.32;100584.78;5079797;28;818;-43
2022/03/04 01:35:05;;;;;;;;;;;;;;;27.37;21.28;100588.25;5084763;28;782;-43
2022/03/04 01:37:30;;;;;;;;;;;;;;;27.81;20.86;100591.06;5098780;28;2192;-42
2022/03/04 01:39:55;;;;;;;;;;;;;;;28.40;20.10;100591.00;5098044;28;854;-42
2022/03/04 01:42:20;;;;;;;;;;;;;;;28.33;20.18;100596.34;5098654;28;932;-42
2022/03/04 01:44:46;;;;;;;;;;;;;;;28.59;19.94;100597.63;5079552;28;938;-43
2022/03/04 01:47:11;;;;;;;;;;;;;;;28.81;19.50;100597.56;5088140;28;803;-42
2022/03/04 01:49:38;;;;;;;;;;;;;;;29.09;19.18;100591.28;5097560;28;858;-42
2022/03/04 01:52:03;;;;;;;;;;;;;;;29.26;19.31;100590.94;5098168;28;878;-42
2022/03/04 01:54:28;;;;;;;;;;;;;;;28.22;19.83;100593.13;5098533;28;797;-42
2022/03/04 01:56:54;;;;;;;;;;;;;;;27.82;20.32;100588.19;5079561;28;1951;-43
2022/03/04 01:59:19;;;;;;;;;;;;;;;28.34;20.23;100584.53;5098346;28;822;-43
2022/03/04 02:01:44;;;;;;;;;;;;;;;28.49;19.98;100581.72;5081020;28;845;-43
2022/03/04 02:04:09;;;;;;;;;;;;;;;28.03;20.24;100580.28;5078404;28;802;-43
2022/03/04 02:06:35;;;;;;;;;;;;;;;27.61;20.96;100586.25;5078346;28;1012;-43
2022/03/04 02:09:00;;;;;;;;;;;;;;;27.39;21.07;100584.31;5079146;28;766;-43
2022/03/04 02:11:26;;;;;;;;;;;;;;;27.24;21.16;100581.63;5078299;28;1098;-43
2022/03/04 02:13:51;;;;;;;;;;;;;;;27.28;21.46;100576.72;5082901;28;796;-42
2022/03/04 02:16:27;;;;;;;;;;;;;;;27.22;21.13;100581.00;5083755;28;890;-43
2022/03/04 02:18:52;;;;;;;;;;;;;;;26.99;21.59;100587.31;5097273;28;805;-40
2022/03/04 02:21:20;;;;;;;;;;;;;;;26.92;21.46;100586.38;5097822;28;730;-43
2022/03/04 02:23:46;;;;;;;;;;;;;;;27.13;21.66;100587.53;5079890;28;861;-43
2022/03/04 02:26:11;;;;;;;;;;;;;;;27.14;21.61;100581.13;5096042;28;846;-41
2022/03/04 02:28:36;;;;;;;;;;;;;;;27.59;21.39;100580.19;5097166;28;861;-43
2022/03/04 02:31:01;;;;;;;;;;;;;;;28.09;20.82;100577.59;5090743;28;850;-43
2022/03/04 02:33:27;;;;;;;;;;;;;;;27.57;20.59;100476.88;5097002;28;826;-43
2022/03/04 02:35:52;;;;;;;;;;;;;;;28.33;20.46;100578.25;5097551;28;877;-42
2022/03/04 02:38:17;;;;;;;;;;;;;;;28.63;20.00;100592.66;5075514;28;1965;-43
2022/03/04 02:40:43;;;;;;;;;;;;;;;28.73;19.97;100587.69;5097066;28;841;-43
2022/03/04 02:43:08;;;;;;;;;;;;;;;28.70;19.89;100583.53;5097439;28;830;-43
2022/03/04 02:45:33;;;;;;;;;;;;;;;28.14;20.38;100589.72;5093410;28;839;-42
2022/03/04 02:47:58;;;;;;;;;;;;;;;27.62;20.86;100590.63;5096016;28;849;-42
2022/03/04 02:50:24;;;;;;;;;;;;;;;27.77;20.77;100596.03;5096974;28;800;-43
2022/03/04 02:52:49;;;;;;;;;;;;;;;28.39;20.03;100602.88;5095711;28;929;-43
2022/03/04 02:55:14;;;;;;;;;;;;;;;28.47;20.13;100610.84;5097192;28;885;-42
2022/03/04 02:57:40;;;;;;;;;;;;;;;28.61;19.83;100598.25;5096733;28;1901;-43
2022/03/04 03:00:06;;;;;;;;;;;;;;;28.76;19.76;100597.31;5096852;28;838;-43
2022/03/04 03:02:31;;;;;;;;;;;;;;;28.73;19.77;100603.94;5074838;28;969;-43
2022/03/04 03:04:56;;;;;;;;;;;;;;;27.78;20.58;100599.56;5087218;28;770;-42
2022/03/04 03:07:21;;;;;;;;;;;;;;;27.37;21.19;100599.91;5096686;28;1415;-43
2022/03/04 03:09:47;;;;;;;;;;;;;;;28.31;20.42;100590.28;5096218;28;1421;-42
2022/03/04 03:12:12;;;;;;;;;;;;;;;28.58;19.97;100591.34;5096783;28;749;-43
2022/03/04 03:14:37;;;;;;;;;;;;;;;28.36;20.28;100596.81;5096498;28;770;-42
2022/03/04 03:17:03;;;;;;;;;;;;;;;28.61;19.85;100587.44;5081170;28;1910;-43
2022/03/04 03:19:28;;;;;;;;;;;;;;;28.69;19.62;100592.69;5077566;28;832;-43
2022/03/04 03:21:53;;;;;;;;;;;;;;;28.69;19.82;100592.69;5077325;28;902;-43
2022/03/04 03:24:19;;;;;;;;;;;;;;;28.81;19.47;100589.44;5058180;28;915;-43
2022/03/04 03:26:44;;;;;;;;;;;;;;;27.67;20.48;100590.91;5076925;28;806;-42
2022/03/04 03:29:09;;;;;;;;;;;;;;;27.18;21.52;100590.50;5076594;28;916;-42
2022/03/04 03:31:34;;;;;;;;;;;;;;;27.17;21.50;100594.25;5090627;28;1080;-42
2022/03/04 03:34:00;;;;;;;;;;;;;;;28.61;19.53;100592.84;5096624;28;996;-43
2022/03/04 03:36:25;;;;;;;;;;;;;;;27.55;20.58;100590.53;5096204;28;1893;-43
2022/03/04 03:38:50;;;;;;;;;;;;;;;27.98;20.42;100591.63;5095762;28;825;-43
2022/03/04 03:41:16;;;;;;;;;;;;;;;28.62;19.85;100591.81;5096754;28;774;-42
2022/03/04 03:43:41;;;;;;;;;;;;;;;28.84;19.39;100589.03;5082453;28;869;-43
2022/03/04 03:46:06;;;;;;;;;;;;;;;28.77;19.52;100590.84;5092509;28;800;-43
2022/03/04 03:48:31;;;;;;;;;;;;;;;29.01;19.31;100597.69;5078955;28;750;-42
2022/03/04 03:50:57;;;;;;;;;;;;;;;28.85;19.38;100594.25;5076755;28;839;-42
2022/03/04 03:53:22;;;;;;;;;;;;;;;28.89;19.56;100594.69;5077076;28;897;-42
2022/03/04 03:55:47;;;;;;;;;;;;;;;27.86;20.50;100592.16;5083107;28;805;-43
2022/03/04 03:58:13;;;;;;;;;;;;;;;27.81;20.79;100591.88;5096026;28;1898;-43
2022/03/04 04:00:38;;;;;;;;;;;;;;;28.81;19.77;100586.72;5089366;28;835;-43
2022/03/04 04:03:03;;;;;;;;;;;;;;;29.19;19.31;100580.94;5076611;28;842;-43
2022/03/04 04:05:29;;;;;;;;;;;;;;;29.03;19.38;100581.25;5076886;28;726;-43
2022/03/04 04:07:54;;;;;;;;;;;;;;;29.16;19.43;100572.38;5077379;28;985;-43
2022/03/04 04:10:20;;;;;;;;;;;;;;;28.90;19.66;100577.41;5095874;28;888;-43
2022/03/04 04:12:45;;;;;;;;;;;;;;;28.98;19.58;100573.72;5095994;28;822;-42
2022/03/04 04:15:10;;;;;;;;;;;;;;;28.11;20.03;100580.97;5095071;28;778;-42
2022/03/04 04:17:36;;;;;;;;;;;;;;;27.93;20.60;100576.00;5075973;28;1973;-43
2022/03/04 04:20:01;;;;;;;;;;;;;;;28.69;20.23;100571.03;5075715;28;802;-42
2022/03/04 04:22:26;;;;;;;;;;;;;;;28.90;19.59;100571.16;5095941;28;730;-42
2022/03/04 04:24:51;;;;;;;;;;;;;;;29.01;18.04;100575.22;5095732;28;834;-42
2022/03/04 04:27:17;;;;;;;;;;;;;;;28.51;18.41;100570.69;5095994;28;782;-42
2022/03/04 04:29:42;;;;;;;;;;;;;;;27.65;18.11;100571.31;5095814;28;770;-42
2022/03/04 04:32:08;;;;;;;;;;;;;;;27.29;18.04;100570.31;5090136;28;858;-42
2022/03/04 04:34:33;;;;;;;;;;;;;;;26.59;17.59;100575.94;5083154;28;993;-42
2022/03/04 04:36:58;;;;;;;;;;;;;;;26.71;16.43;100581.72;5095758;28;1893;-42
2022/03/04 04:39:23;;;;;;;;;;;;;;;27.83;15.31;100580.88;5095437;28;813;-41
2022/03/04 04:41:49;;;;;;;;;;;;;;;28.24;15.70;100580.22;5095589;28;925;-41
2022/03/04 04:44:14;;;;;;;;;;;;;;;28.50;15.78;100579.84;5095763;28;804;-41
2022/03/04 04:46:39;;;;;;;;;;;;;;;28.70;16.11;100575.41;5090491;28;840;-43
2022/03/04 04:49:05;;;;;;;;;;;;;;;28.91;16.00;100573.66;5095572;28;919;-43
2022/03/04 04:51:30;;;;;;;;;;;;;;;29.06;16.10;100583.56;5095334;28;829;-42
2022/03/04 04:53:55;;;;;;;;;;;;;;;29.19;16.29;100580.94;5095549;28;769;-41
2022/03/04 04:56:21;;;;;;;;;;;;;;;28.59;17.42;100584.09;5080577;28;1495;-42
2022/03/04 04:58:46;;;;;;;;;;;;;;;27.67;18.52;100587.34;5071874;28;1960;-42
2022/03/04 05:01:11;;;;;;;;;;;;;;;27.63;18.94;100592.28;5087141;28;875;-43
2022/03/04 05:03:36;;;;;;;;;;;;;;;27.95;18.57;100592.88;5095749;28;830;-42
2022/03/04 05:06:02;;;;;;;;;;;;;;;27.82;18.56;100596.28;5095008;28;1181;-43
2022/03/04 05:08:29;;;;;;;;;;;;;;;27.25;19.64;100590.59;5095552;28;781;-43
2022/03/04 05:10:54;;;;;;;;;;;;;;;26.83;19.80;100596.44;5090695;28;755;-42
2022/03/04 05:13:20;;;;;;;;;;;;;;;26.50;20.20;100591.34;5095127;28;774;-43
2022/03/04 05:15:45;;;;;;;;;;;;;;;26.54;20.33;100598.06;5086805;28;1113;-42
2022/03/04 05:18:10;;;;;;;;;;;;;;;26.60;20.57;100591.94;5097328;28;1905;-40
2022/03/04 05:20:36;;;;;;;;;;;;;;;26.49;20.64;100595.91;5098728;28;1436;-42
2022/03/04 05:23:01;;;;;;;;;;;;;;;26.45;21.07;100594.59;5088220;28;841;-41
2022/03/04 05:25:27;;;;;;;;;;;;;;;26.41;21.30;100595.97;5083758;28;822;-42
2022/03/04 05:27:52;;;;;;;;;;;;;;;26.75;21.15;100600.06;5098749;28;866;-42
2022/03/04 05:30:17;;;;;;;;;;;;;;;27.30;20.69;100606.22;5097231;28;831;-41
2022/03/04 05:32:42;;;;;;;;;;;;;;;27.75;20.09;100609.72;5095183;28;746;-40
2022/03/04 05:35:08;;;;;;;;;;;;;;;28.21;19.45;100621.19;5098985;28;821;-42
2022/03/04 05:37:33;;;;;;;;;;;;;;;27.58;20.36;100630.69;5095373;28;1897;-42
2022/03/04 05:39:59;;;;;;;;;;;;;;;27.50;20.30;100626.25;5098547;28;790;-42
2022/03/04 05:42:24;;;;;;;;;;;;;;;27.65;20.11;100632.63;5098641;28;817;-41
2022/03/04 05:44:50;;;;;;;;;;;;;;;27.79;20.01;100639.91;5098524;28;821;-41
2022/03/04 05:47:15;;;;;;;;;;;;;;;27.95;19.83;100640.69;5094915;28;814;-40
2022/03/04 05:49:40;;;;;;;;;;;;;;;28.06;20.07;100642.06;5085134;28;862;-40
2022/03/04 05:52:06;;;;;;;;;;;;;;;28.14;19.82;100647.34;5098516;28;854;-42
2022/03/04 05:54:31;;;;;;;;;;;;;;;28.17;20.05;100654.22;5098808;28;841;-43
2022/03/04 05:56:56;;;;;;;;;;;;;;;28.26;19.90;100652.25;5098447;28;1947;-42
2022/03/04 05:59:22;;;;;;;;;;;;;;;28.33;19.99;100648.59;5093437;28;952;-42
2022/03/04 06:01:47;;;;;;;;;;;;;;;28.39;19.83;100648.84;5070043;28;929;-42
2022/03/04 06:04:12;;;;;;;;;;;;;;;28.53;19.78;100655.22;5096476;28;874;-41
2022/03/04 06:06:38;;;;;;;;;;;;;;;28.53;20.09;100660.66;5097644;28;1432;-42
2022/03/04 06:09:03;;;;;;;;;;;;;;;28.59;19.85;100663.38;5098236;28;909;-43
2022/03/04 06:11:28;;;;;;;;;;;;;;;28.34;19.75;100669.19;5092796;28;960;-44
2022/03/04 06:13:53;;;;;;;;;;;;;;;27.84;20.34;100669.88;5073380;28;1282;-42
2022/03/04 06:16:20;;;;;;;;;;;;;;;27.90;20.38;100671.00;5076104;28;876;-43
2022/03/04 06:18:45;;;;;;;;;;;;;;;28.80;19.67;100669.81;5082648;28;1913;-43
2022/03/04 06:21:10;;;;;;;;;;;;;;;29.06;19.51;100665.63;5071436;28;949;-43
2022/03/04 06:23:36;;;;;;;;;;;;;;;29.14;19.46;100664.66;5078024;28;972;-43
2022/03/04 06:26:01;;;;;;;;;;;;;;;28.30;20.08;100669.75;5075341;28;937;-43
2022/03/04 06:28:26;;;;;;;;;;;;;;;28.01;20.98;100668.84;5076378;28;969;-42
2022/03/04 06:30:52;;;;;;;;;;;;;;;28.07;20.91;100671.63;5069452;28;1237;-43
2022/03/04 06:33:32;;;;;;;;;;;;;;;28.21;20.82;100677.16;5097606;28;886;-42
2022/03/04 06:36:05;;;;;;;;;;;;;;;28.40;20.46;100675.72;5073398;28;830;-43
2022/03/04 06:38:30;;;;;;;;;;;;;;;27.56;19.49;100684.06;5075087;28;1960;-42
2022/03/04 06:40:56;;;;;;;;;;;;;;;27.02;19.16;100681.47;5095668;28;824;-42
2022/03/04 06:43:21;;;;;;;;;;;;;;;27.93;17.57;100677.88;5097116;28;843;-42
2022/03/04 06:45:47;;;;;;;;;;;;;;;28.21;16.82;100671.75;5089965;28;869;-42
2022/03/04 06:48:12;;;;;;;;;;;;;;;28.29;16.50;100679.75;5096135;28;1089;-42
2022/03/04 06:50:38;;;;;;;;;;;;;;;28.35;16.36;100683.56;5096915;28;734;-43
2022/03/04 06:53:03;;;;;;;;;;;;;;;27.94;16.17;100677.72;5087976;28;762;-47
2022/03/04 06:55:29;;;;;;;;;;;;;;;27.51;16.35;100671.13;5071180;28;817;-44
2022/03/04 06:57:55;;;;;;;;;;;;;;;27.33;16.61;100673.38;5077652;28;1957;-44
2022/03/04 07:00:20;;;;;;;;;;;;;;;27.21;16.64;100673.03;5077262;28;937;-44
2022/03/04 07:02:46;;;;;;;;;;;;;;;27.21;16.94;100665.72;5095333;28;807;-43
2022/03/04 07:05:11;;;;;;;;;;;;;;;27.47;16.71;100674.41;5094403;28;1405;-47
2022/03/04 07:07:36;;;;;;;;;;;;;;;27.72;16.83;100680.38;5087268;28;1428;-42
2022/03/04 07:10:02;;;;;;;;;;;;;;;28.03;17.72;100678.44;5093506;28;1152;-44
2022/03/04 07:12:27;;;;;;;;;;;;;;;28.22;17.60;100676.97;5082722;28;1152;-45
2022/03/04 07:14:53;;;;;;;;;;;;;;;28.43;17.96;100678.03;5081319;28;1397;-42
2022/03/04 07:17:18;;;;;;;;;;;;;;;28.67;17.85;100683.22;5076394;28;1906;-41
2022/03/04 07:19:43;;;;;;;;;;;;;;;28.87;17.94;100691.53;5072100;28;1245;-46
2022/03/04 07:22:09;;;;;;;;;;;;;;;29.02;17.82;100686.03;5085042;28;1548;-43
2022/03/04 07:24:34;;;;;;;;;;;;;;;29.11;17.88;100684.03;5084923;28;1290;-43
2022/03/04 07:26:59;;;;;;;;;;;;;;;29.13;17.71;100683.81;5075597;28;1366;-44
2022/03/04 07:29:25;;;;;;;;;;;;;;;29.17;17.67;100679.66;5076829;28;1504;-43
2022/03/04 07:31:53;;;;;;;;;;;;;;;29.18;17.89;100674.03;5073515;28;1370;-43
2022/03/04 07:34:18;;;;;;;;;;;;;;;29.21;17.87;100670.13;5084103;28;1607;-43
2022/03/04 07:36:44;;;;;;;;;;;;;;;29.49;17.89;100671.09;5095807;28;1906;-43
2022/03/04 07:39:09;;;;;;;;;;;;;;;29.49;17.90;100674.63;5082890;28;1143;-43
2022/03/04 07:41:34;;;;;;;;;;;;;;;29.54;17.90;100674.03;5076106;28;1488;-43
2022/03/04 07:44:00;;;;;;;;;;;;;;;29.61;18.02;100672.22;5070555;28;1218;-42
2022/03/04 07:46:25;;;;;;;;;;;;;;;29.74;17.91;100673.31;5083309;28;1296;-41
2022/03/04 07:48:50;;;;;;;;;;;;;;;29.84;17.65;100675.63;5082867;28;1207;-43
2022/03/04 07:51:16;;;;;;;;;;;;;;;29.90;17.72;100678.38;5075197;28;1250;-44
2022/03/04 07:53:41;;;;;;;;;;;;;;;29.93;17.48;100674.41;5073611;28;1186;-42
2022/03/04 07:56:06;;;;;;;;;;;;;;;30.00;17.67;100675.25;5080069;28;1290;-42
2022/03/04 07:58:32;;;;;;;;;;;;;;;29.66;17.67;100666.19;5080104;28;1958;-42
2022/03/04 08:00:57;;;;;;;;;;;;;;;28.93;18.64;100666.34;5080882;28;1303;-42
2022/03/04 08:03:22;;;;;;;;;;;;;;;29.88;17.75;100658.75;5081609;28;1278;-41
2022/03/04 08:05:48;;;;;;;;;;;;;;;29.93;17.85;100661.69;5075159;28;1422;-41
2022/03/04 08:08:13;;;;;;;;;;;;;;;29.66;18.27;100658.06;5076503;28;1060;-42
2022/03/04 08:10:38;;;;;;;;;;;;;;;29.53;18.27;100656.09;5078936;28;802;-42
2022/03/04 08:13:04;;;;;;;;;;;;;;;29.50;18.38;100665.47;5084643;28;1256;-42
2022/03/04 08:15:30;;;;;;;;;;;;;;;29.37;18.41;100666.22;5074791;28;1148;-42
2022/03/04 08:17:55;;;;;;;;;;;;;;;29.38;18.55;100661.66;5049551;28;1975;-42
2022/03/04 08:20:21;;;;;;;;;;;;;;;29.50;18.29;100662.75;5075302;28;1311;-41
2022/03/04 08:22:47;;;;;;;;;;;;;;;29.69;18.15;100669.34;5076558;28;1588;-42
2022/03/04 08:25:12;;;;;;;;;;;;;;;29.70;18.00;100665.56;5073512;28;1459;-41
2022/03/04 08:27:40;;;;;;;;;;;;;;;29.85;17.96;100661.03;5089786;28;1164;-42
2022/03/04 08:30:06;;;;;;;;;;;;;;;30.00;17.85;100660.84;5075943;28;1302;-41
2022/03/04 08:32:31;;;;;;;;;;;;;;;30.08;17.77;100668.81;5074940;28;1230;-41
2022/03/04 08:34:59;;;;;;;;;;;;;;;29.34;18.30;100672.88;5070953;28;1403;-41
2022/03/04 08:37:24;;;;;;;;;;;;;;;28.80;18.72;100680.63;5081835;28;1971;-42
2022/03/04 08:39:49;;;;;;;;;;;;;;;29.54;18.50;100676.75;5080599;28;1184;-41
2022/03/04 08:42:15;;;;;;;;;;;;;;;29.56;18.48;100674.66;5089239;28;1270;-41
2022/03/04 08:44:42;;;;;;;;;;;;;;;29.49;18.64;100680.06;5075086;28;1240;-41
2022/03/04 08:47:07;;;;;;;;;;;;;;;29.51;18.53;100677.16;5076638;28;824;-41
2022/03/04 08:49:32;;;;;;;;;;;;;;;29.59;18.57;100677.00;5082246;28;1270;-41
2022/03/04 08:51:59;;;;;;;;;;;;;;;29.62;18.56;100675.75;5095176;28;915;-42
2022/03/04 08:54:24;;;;;;;;;;;;;;;29.86;18.35;100668.97;5085678;28;1360;-42
2022/03/04 08:56:50;;;;;;;;;;;;;;;29.92;18.34;100665.44;5092264;28;2019;-41
2022/03/04 08:59:15;;;;;;;;;;;;;;;29.97;18.46;100664.81;5099211;28;889;-42
2022/03/04 09:01:40;;;;;;;;;;;;;;;29.95;18.33;100661.47;5085666;28;999;-43
2022/03/04 09:04:05;;;;;;;;;;;;;;;29.88;18.51;100660.63;5064858;28;1241;-42
2022/03/04 09:06:31;;;;;;;;;;;;;;;29.47;18.40;100660.44;5074082;28;1289;-43
2022/03/04 09:08:56;;;;;;;;;;;;;;;29.09;18.99;100650.88;5078283;28;1324;-43
2022/03/04 09:11:22;;;;;;;;;;;;;;;29.97;18.40;100653.97;5079203;28;1304;-43
2022/03/04 09:13:47;;;;;;;;;;;;;;;29.84;18.37;100653.94;5080735;28;1230;-44
2022/03/04 09:16:12;;;;;;;;;;;;;;;29.79;18.34;100652.69;5082132;28;1235;-44
2022/03/04 09:18:38;;;;;;;;;;;;;;;29.57;18.59;100651.94;5078906;28;1957;-44
2022/03/04 09:21:03;;;;;;;;;;;;;;;29.61;18.77;100652.41;5092542;28;1234;-43
2022/03/04 09:23:28;;;;;;;;;;;;;;;29.72;18.54;100650.97;5090550;28;1329;-45
2022/03/04 09:25:54;;;;;;;;;;;;;;;29.19;18.81;100653.22;5080619;28;1506;-46
2022/03/04 09:28:19;;;;;;;;;;;;;;;29.09;18.98;100645.47;5093261;28;1199;-46
2022/03/04 09:30:44;;;;;;;;;;;;;;;30.08;18.12;100654.41;5086167;28;1376;-46
2022/03/04 09:33:10;;;;;;;;;;;;;;;29.86;18.39;100657.28;5081610;28;1322;-44
2022/03/04 09:35:35;;;;;;;;;;;;;;;29.66;18.69;100656.16;5095026;28;828;-44
2022/03/04 09:38:00;;;;;;;;;;;;;;;29.64;18.73;100657.41;5090581;28;1949;-45
2022/03/04 09:40:26;;;;;;;;;;;;;;;29.74;18.70;100649.75;5093695;28;1195;-47
2022/03/04 09:42:52;;;;;;;;;;;;;;;29.52;18.39;100641.72;5085871;28;1315;-46
2022/03/04 09:45:17;;;;;;;;;;;;;;;29.24;18.97;100642.63;5074486;28;1051;-45
2022/03/04 09:47:43;;;;;;;;;;;;;;;29.92;18.53;100641.03;5081419;28;1237;-45
2022/03/04 09:50:09;;;;;;;;;;;;;;;29.86;18.56;100646.44;5078104;28;1246;-46
2022/03/04 09:52:35;;;;;;;;;;;;;;;29.98;18.35;100639.38;5072824;28;1312;-45
2022/03/04 09:55:00;;;;;;;;;;;;;;;30.04;18.19;100635.00;5071721;28;1202;-45
2022/03/04 09:57:25;;;;;;;;;;;;;;;30.09;18.30;100628.97;5095354;28;1933;-45
2022/03/04 09:59:51;;;;;;;;;;;;;;;30.33;17.73;100627.53;5094237;28;1436;-44
2022/03/04 10:02:17;;;;;;;;;;;;;;;29.64;18.60;100622.19;5076911;28;1262;-45
2022/03/04 10:05:03;;;;;;;;;;;;;;;29.23;18.67;100626.56;5074518;28;1598;-45
2022/03/04 10:07:49;;;;;;;;;;;;;;;29.14;18.65;100617.78;5068445;28;1370;-45
2022/03/04 10:10:15;;;;;;;;;;;;;;;29.19;19.02;100615.28;5079314;28;1376;-46
2022/03/04 10:12:47;;;;;;;;;;;;;;;29.02;18.65;100629.16;5071358;28;1279;-46
2022/03/04 10:15:12;;;;;;;;;;;;;;;28.93;18.75;100614.91;5077819;28;1351;-44
2022/03/04 10:17:38;;;;;;;;;;;;;;;28.73;19.00;100621.03;5060140;28;2017;-45
2022/03/04 10:20:07;;;;;;;;;;;;;;;28.76;19.30;100616.25;5086501;28;1179;-45
2022/03/04 10:22:42;;;;;;;;;;;;;;;28.62;19.27;100618.03;5084381;28;1433;-45
2022/03/04 10:25:14;;;;;;;;;;;;;;;28.47;19.65;100616.25;5082150;28;1451;-45
2022/03/04 10:27:39;;;;;;;;;;;;;;;28.43;19.91;100614.94;5083363;28;1133;-45
2022/03/04 10:30:05;;;;;;;;;;;;;;;28.26;20.01;100609.78;5068826;28;1141;-46
2022/03/04 10:32:30;;;;;;;;;;;;;;;28.75;19.33;100606.44;5092461;28;1001;-46
2022/03/04 10:34:56;;;;;;;;;;;;;;;29.39;18.70;100601.84;5045819;28;1560;-45
2022/03/04 10:37:21;;;;;;;;;;;;;;;30.03;18.07;100609.75;5079473;28;1909;-47
2022/03/04 10:40:10;;;;;;;;;;;;;;;30.57;17.65;100605.41;5081442;28;986;-46
2022/03/04 10:42:39;;;;;;;;;;;;;;;30.28;17.99;100605.66;5043111;28;1635;-46
2022/03/04 10:45:09;;;;;;;;;;;;;;;30.17;18.12;100598.91;5084596;28;1164;-46
2022/03/04 10:47:44;;;;;;;;;;;;;;;30.26;18.14;100588.75;5077481;28;1437;-46
2022/03/04 10:50:10;;;;;;;;;;;;;;;30.16;18.31;100587.22;5077911;28;1643;-47
2022/03/04 10:52:46;;;;;;;;;;;;;;;29.56;18.73;100587.94;5085473;28;1538;-45
2022/03/04 10:55:11;;;;;;;;;;;;;;;29.17;19.07;100587.56;5070107;28;758;-46
2022/03/04 10:57:40;;;;;;;;;;;;;;;29.99;18.14;100588.69;5080965;28;1965;-45
2022/03/04 11:00:06;;;;;;;;;;;;;;;30.02;18.36;100582.84;5090345;28;1413;-48
2022/03/04 11:02:43;;;;;;;;;;;;;;;30.06;18.30;100579.50;5086339;28;1247;-47
2022/03/04 11:05:09;;;;;;;;;;;;;;;30.19;18.26;100572.44;5084386;28;1456;-46
2022/03/04 11:07:35;;;;;;;;;;;;;;;30.31;18.20;100573.47;5061263;28;1593;-45
2022/03/04 11:10:01;;;;;;;;;;;;;;;30.14;18.10;100567.63;5070636;28;1433;-45
2022/03/04 11:12:27;;;;;;;;;;;;;;;29.69;18.61;100568.19;5058277;28;1515;-43
2022/03/04 11:14:53;;;;;;;;;;;;;;;29.88;18.83;100569.25;5057097;28;1291;-43
2022/03/04 11:17:18;;;;;;;;;;;;;;;30.15;18.61;100561.16;5070169;28;1902;-44
2022/03/04 11:19:43;;;;;;;;;;;;;;;30.18;18.54;100560.72;5057722;28;1338;-45
2022/03/04 11:22:10;;;;;;;;;;;;;;;30.17;18.50;100563.66;5058070;28;1282;-44
2022/03/04 11:24:37;;;;;;;;;;;;;;;30.24;18.32;100566.41;5062149;28;1479;-44
2022/03/04 11:27:04;;;;;;;;;;;;;;;30.37;18.21;100557.41;5055270;28;1350;-44
2022/03/04 11:29:34;;;;;;;;;;;;;;;29.88;18.51;100552.97;5055783;28;1250;-45
2022/03/04 11:31:59;;;;;;;;;;;;;;;29.95;18.43;100547.56;5058352;28;1415;-45
2022/03/04 11:34:34;;;;;;;;;;;;;;;30.00;18.47;100549.66;5065138;28;1353;-45
2022/03/04 11:37:00;;;;;;;;;;;;;;;30.82;17.60;100547.75;5066382;28;1899;-46
2022/03/04 11:39:26;;;;;;;;;;;;;;;30.41;18.16;100545.09;5056277;28;1472;-46
2022/03/04 11:41:53;;;;;;;;;;;;;;;30.25;18.22;100549.91;5055298;28;1323;-46
2022/03/04 11:44:24;;;;;;;;;;;;;;;30.21;18.38;100547.81;5056100;28;1408;-46
2022/03/04 11:47:00;;;;;;;;;;;;;;;30.01;18.62;100540.50;5051432;28;1202;-45
2022/03/04 11:49:47;;;;;;;;;;;;;;;29.60;18.94;100545.84;5049100;28;1394;-44
2022/03/04 11:52:25;;;;;;;;;;;;;;;29.89;18.79;100545.69;5060111;28;1298;-44
2022/03/04 11:54:54;;;;;;;;;;;;;;;30.42;18.22;100546.75;5055161;28;1222;-44
2022/03/04 11:57:20;;;;;;;;;;;;;;;30.53;17.91;100548.00;5055482;28;1959;-44
2022/03/04 11:59:51;;;;;;;;;;;;;;;30.48;18.15;100543.19;5058991;28;1376;-43
2022/03/04 12:02:26;;;;;;;;;;;;;;;30.31;18.19;100545.53;5050783;28;1140;-44
2022/03/04 12:05:10;;;;;;;;;;;;;;;30.05;18.75;100547.16;5059023;28;1345;-44
2022/03/04 12:07:35;;;;;;;;;;;;;;;29.64;18.79;100549.00;5068349;28;1324;-45
2022/03/04 12:10:01;;;;;;;;;;;;;;;29.49;19.21;100552.69;5075414;28;1248;-45
2022/03/04 12:12:26;;;;;;;;;;;;;;;29.81;18.83;100557.59;5056584;28;1615;-45
2022/03/04 12:14:53;;;;;;;;;;;;;;;30.37;18.46;100560.13;5078431;28;1291;-45
2022/03/04 12:17:18;;;;;;;;;;;;;;;30.18;18.45;100557.16;5069483;28;1965;-47
2022/03/04 12:19:43;;;;;;;;;;;;;;;30.21;18.60;100548.66;5071758;28;1214;-45
2022/03/04 12:22:12;;;;;;;;;;;;;;;29.80;18.85;100564.88;5075709;28;1072;-45
2022/03/04 12:24:37;;;;;;;;;;;;;;;29.46;19.07;100574.78;5077520;28;1460;-44
2022/03/04 12:27:03;;;;;;;;;;;;;;;29.05;19.53;100571.91;5079663;28;1079;-44
2022/03/04 12:29:47;;;;;;;;;;;;;;;29.77;19.18;100575.28;5080467;28;1223;-44
2022/03/04 12:32:13;;;;;;;;;;;;;;;30.05;18.87;100575.13;5076869;28;1230;-46
2022/03/04 12:34:50;;;;;;;;;;;;;;;30.17;18.51;100583.47;5084292;28;1544;-46
2022/03/04 12:37:15;;;;;;;;;;;;;;;30.28;18.68;100582.03;5084993;28;1901;-46
2022/03/04 12:39:43;;;;;;;;;;;;;;;29.74;19.21;100581.97;5094026;28;1532;-43
2022/03/04 12:42:09;;;;;;;;;;;;;;;29.27;19.13;100590.75;5090583;28;1587;-46
2022/03/04 12:44:35;;;;;;;;;;;;;;;29.36;18.25;100593.28;5099589;28;1366;-44